sensor_id;sensor_type;location;lat;lon;timestamp;pressure;altitude;pressure_sealevel;temperature;humidity
34124;BME280;13153;52.316;21.166;2023-04-26T00:02:10;99537.38;;;14.21;58.06
34124;BME280;13153;52.316;21.166;2023-04-26T00:04:37;99540.03;;;14.19;58.28
34124;BME280;13153;52.316;21.166;2023-04-26T00:07:03;99540.94;;;14.15;58.22
34124;BME280;13153;52.316;21.166;2023-04-26T00:09:29;99540.94;;;14.14;58.29
34124;BME280;13153;52.316;21.166;2023-04-26T00:11:55;99535.63;;;14.20;58.12
34124;BME280;13153;52.316;21.166;2023-04-26T00:14:21;99532.97;;;14.18;58.04
34124;BME280;13153;52.316;21.166;2023-04-26T00:16:46;99555.03;;;14.19;58.28
34124;BME280;13153;52.316;21.166;2023-04-26T00:19:12;99552.38;;;14.19;58.14
34124;BME280;13153;52.316;21.166;2023-04-26T00:21:38;99549.75;;;14.17;58.26
34124;BME280;13153;52.316;21.166;2023-04-26T00:24:05;99555.03;;;14.14;58.40
34124;BME280;13153;52.316;21.166;2023-04-26T00:26:31;99561.22;;;14.13;58.55
34124;BME280;13153;52.316;21.166;2023-04-26T00:28:59;99572.69;;;14.02;58.19
34124;BME280;13153;52.316;21.166;2023-04-26T00:31:25;99579.72;;;13.95;58.15
34124;BME280;13153;52.316;21.166;2023-04-26T00:33:50;99585.03;;;13.91;57.60
34124;BME280;13153;52.316;21.166;2023-04-26T00:36:16;99574.44;;;13.91;57.58
34124;BME280;13153;52.316;21.166;2023-04-26T00:38:44;99591.19;;;13.88;57.18
34124;BME280;13153;52.316;21.166;2023-04-26T00:41:11;99595.63;;;13.84;57.00
34124;BME280;13153;52.316;21.166;2023-04-26T00:43:37;99592.97;;;13.75;56.99
34124;BME280;13153;52.316;21.166;2023-04-26T00:46:04;99602.66;;;13.73;57.43
34124;BME280;13153;52.316;21.166;2023-04-26T00:48:31;99602.63;;;13.61;56.66
34124;BME280;13153;52.316;21.166;2023-04-26T00:50:57;99611.44;;;13.59;56.72
34124;BME280;13153;52.316;21.166;2023-04-26T00:53:24;99609.69;;;13.56;55.57
34124;BME280;13153;52.316;21.166;2023-04-26T00:55:51;99620.22;;;13.47;55.94
34124;BME280;13153;52.316;21.166;2023-04-26T00:58:18;99618.44;;;13.34;55.07
34124;BME280;13153;52.316;21.166;2023-04-26T01:00:44;99617.56;;;13.36;54.86
34124;BME280;13153;52.316;21.166;2023-04-26T01:03:10;99619.31;;;13.34;55.16
34124;BME280;13153;52.316;21.166;2023-04-26T01:05:40;99617.53;;;13.21;54.80
34124;BME280;13153;52.316;21.166;2023-04-26T01:08:06;99611.25;;;13.02;55.01
34124;BME280;13153;52.316;21.166;2023-04-26T01:10:34;99612.13;;;12.98;55.23
34124;BME280;13153;52.316;21.166;2023-04-26T01:13:01;99608.50;;;12.78;55.61
34124;BME280;13153;52.316;21.166;2023-04-26T01:15:28;99592.59;;;12.61;56.04
34124;BME280;13153;52.316;21.166;2023-04-26T01:17:56;99599.56;;;12.48;56.50
34124;BME280;13153;52.316;21.166;2023-04-26T01:20:22;99599.53;;;12.45;57.03
34124;BME280;13153;52.316;21.166;2023-04-26T01:22:49;99601.28;;;12.42;56.73
34124;BME280;13153;52.316;21.166;2023-04-26T01:25:15;99606.53;;;12.40;56.69
34124;BME280;13153;52.316;21.166;2023-04-26T01:27:41;99607.47;;;12.47;56.93
34124;BME280;13153;52.316;21.166;2023-04-26T01:30:08;99617.19;;;12.54;56.79
34124;BME280;13153;52.316;21.166;2023-04-26T01:32:34;99621.63;;;12.61;57.24
34124;BME280;13153;52.316;21.166;2023-04-26T01:35:00;99630.47;;;12.66;57.34
34124;BME280;13153;52.316;21.166;2023-04-26T01:37:27;99630.47;;;12.69;57.64
34124;BME280;13153;52.316;21.166;2023-04-26T01:39:52;99628.69;;;12.71;57.13
34124;BME280;13153;52.316;21.166;2023-04-26T01:42:18;99633.13;;;12.74;57.15
34124;BME280;13153;52.316;21.166;2023-04-26T01:44:44;99633.13;;;12.78;57.17
34124;BME280;13153;52.316;21.166;2023-04-26T01:47:10;99631.41;;;12.82;56.95
34124;BME280;13153;52.316;21.166;2023-04-26T01:49:36;99638.44;;;12.83;57.52
34124;BME280;13153;52.316;21.166;2023-04-26T01:52:02;99640.25;;;12.90;57.60
34124;BME280;13153;52.316;21.166;2023-04-26T01:54:28;99640.25;;;12.88;57.45
34124;BME280;13153;52.316;21.166;2023-04-26T01:56:53;99636.75;;;12.93;56.95
34124;BME280;13153;52.316;21.166;2023-04-26T01:59:19;99646.44;;;12.94;57.28
34124;BME280;13153;52.316;21.166;2023-04-26T02:01:45;99649.97;;;12.96;57.21
34124;BME280;13153;52.316;21.166;2023-04-26T02:04:11;99649.94;;;12.91;57.08
34124;BME280;13153;52.316;21.166;2023-04-26T02:06:37;99648.16;;;12.90;57.44
34124;BME280;13153;52.316;21.166;2023-04-26T02:09:05;99646.41;;;12.92;57.69
34124;BME280;13153;52.316;21.166;2023-04-26T02:11:31;99649.94;;;12.93;57.45
34124;BME280;13153;52.316;21.166;2023-04-26T02:13:57;99647.28;;;12.88;57.45
34124;BME280;13153;52.316;21.166;2023-04-26T02:16:23;99641.97;;;12.85;57.49
34124;BME280;13153;52.316;21.166;2023-04-26T02:18:48;99638.44;;;12.80;56.94
34124;BME280;13153;52.316;21.166;2023-04-26T02:21:16;99642.81;;;12.78;57.38
34124;BME280;13153;52.316;21.166;2023-04-26T02:23:45;99649.84;;;12.76;57.32
34124;BME280;13153;52.316;21.166;2023-04-26T02:26:10;99645.44;;;12.69;57.13
34124;BME280;13153;52.316;21.166;2023-04-26T02:28:37;99643.63;;;12.63;57.09
34124;BME280;13153;52.316;21.166;2023-04-26T02:31:03;99649.75;;;12.57;57.46
34124;BME280;13153;52.316;21.166;2023-04-26T02:33:29;99639.16;;;12.51;57.31
34124;BME280;13153;52.316;21.166;2023-04-26T02:35:55;99644.38;;;12.44;57.45
34124;BME280;13153;52.316;21.166;2023-04-26T02:38:21;99642.59;;;12.41;57.33
34124;BME280;13153;52.316;21.166;2023-04-26T02:40:47;99647.00;;;12.42;57.46
34124;BME280;13153;52.316;21.166;2023-04-26T02:43:13;99645.25;;;12.43;57.35
34124;BME280;13153;52.316;21.166;2023-04-26T02:45:42;99650.56;;;12.46;57.58
34124;BME280;13153;52.316;21.166;2023-04-26T02:48:08;99646.16;;;12.46;57.50
34124;BME280;13153;52.316;21.166;2023-04-26T02:50:34;99644.41;;;12.45;57.64
34124;BME280;13153;52.316;21.166;2023-04-26T02:53:00;99654.06;;;12.45;57.70
34124;BME280;13153;52.316;21.166;2023-04-26T02:55:28;99649.69;;;12.50;57.93
34124;BME280;13153;52.316;21.166;2023-04-26T02:57:53;99648.84;;;12.54;58.04
34124;BME280;13153;52.316;21.166;2023-04-26T03:00:19;99644.44;;;12.53;58.40
34124;BME280;13153;52.316;21.166;2023-04-26T03:02:45;99649.75;;;12.57;57.99
34124;BME280;13153;52.316;21.166;2023-04-26T03:05:11;99641.84;;;12.59;58.13
34124;BME280;13153;52.316;21.166;2023-04-26T03:07:38;99641.00;;;12.66;58.20
34124;BME280;13153;52.316;21.166;2023-04-26T03:10:04;99634.88;;;12.67;58.07
34124;BME280;13153;52.316;21.166;2023-04-26T03:12:30;99640.16;;;12.67;58.49
34124;BME280;13153;52.316;21.166;2023-04-26T03:14:56;99642.78;;;12.69;58.49
34124;BME280;13153;52.316;21.166;2023-04-26T03:17:22;99641.03;;;12.71;58.67
34124;BME280;13153;52.316;21.166;2023-04-26T03:19:47;99648.06;;;12.72;58.23
34124;BME280;13153;52.316;21.166;2023-04-26T03:22:13;99653.34;;;12.75;58.44
34124;BME280;13153;52.316;21.166;2023-04-26T03:24:42;99651.59;;;12.74;58.53
34124;BME280;13153;52.316;21.166;2023-04-26T03:27:09;99655.97;;;12.73;58.56
34124;BME280;13153;52.316;21.166;2023-04-26T03:29:35;99654.25;;;12.75;59.04
34124;BME280;13153;52.316;21.166;2023-04-26T03:32:00;99658.63;;;12.75;58.88
34124;BME280;13153;52.316;21.166;2023-04-26T03:34:26;99656.88;;;12.77;59.05
34124;BME280;13153;52.316;21.166;2023-04-26T03:36:52;99656.91;;;12.80;58.56
34124;BME280;13153;52.316;21.166;2023-04-26T03:39:18;99656.03;;;12.79;58.98
34124;BME280;13153;52.316;21.166;2023-04-26T03:41:44;99657.81;;;12.82;58.80
34124;BME280;13153;52.316;21.166;2023-04-26T03:44:10;99656.06;;;12.84;58.72
34124;BME280;13153;52.316;21.166;2023-04-26T03:46:36;99656.94;;;12.83;58.45
34124;BME280;13153;52.316;21.166;2023-04-26T03:49:02;99662.22;;;12.83;58.88
34124;BME280;13153;52.316;21.166;2023-04-26T03:51:28;99661.31;;;12.81;58.95
34124;BME280;13153;52.316;21.166;2023-04-26T03:53:54;99664.81;;;12.80;58.66
34124;BME280;13153;52.316;21.166;2023-04-26T03:56:20;99663.94;;;12.79;58.98
34124;BME280;13153;52.316;21.166;2023-04-26T03:58:46;99663.06;;;12.79;59.04
34124;BME280;13153;52.316;21.166;2023-04-26T04:01:12;99665.69;;;12.79;59.21
34124;BME280;13153;52.316;21.166;2023-04-26T04:03:38;99667.47;;;12.80;59.08
34124;BME280;13153;52.316;21.166;2023-04-26T04:06:04;99671.00;;;12.82;58.93
34124;BME280;13153;52.316;21.166;2023-04-26T04:08:30;99666.66;;;12.90;58.65
34124;BME280;13153;52.316;21.166;2023-04-26T04:10:56;99658.75;;;12.93;57.94
34124;BME280;13153;52.316;21.166;2023-04-26T04:13:22;99665.81;;;12.96;57.93
34124;BME280;13153;52.316;21.166;2023-04-26T04:15:48;99671.09;;;13.00;58.07
34124;BME280;13153;52.316;21.166;2023-04-26T04:18:14;99672.91;;;13.10;57.47
34124;BME280;13153;52.316;21.166;2023-04-26T04:20:40;99675.66;;;13.23;56.66
34124;BME280;13153;52.316;21.166;2023-04-26T04:23:06;99673.03;;;13.32;56.15
34124;BME280;13153;52.316;21.166;2023-04-26T04:25:33;99673.97;;;13.47;56.08
34124;BME280;13153;52.316;21.166;2023-04-26T04:28:01;99676.72;;;13.79;55.49
34124;BME280;13153;52.316;21.166;2023-04-26T04:30:30;99672.31;;;14.16;53.98
34124;BME280;13153;52.316;21.166;2023-04-26T04:32:56;99676.72;;;14.65;53.29
34124;BME280;13153;52.316;21.166;2023-04-26T04:35:24;99676.59;;;15.10;51.82
34124;BME280;13153;52.316;21.166;2023-04-26T04:37:54;99681.75;;;15.58;49.53
34124;BME280;13153;52.316;21.166;2023-04-26T04:40:24;99678.78;;;16.08;48.57
34124;BME280;13153;52.316;21.166;2023-04-26T04:42:51;99685.41;;;16.61;47.30
34124;BME280;13153;52.316;21.166;2023-04-26T04:45:18;99680.56;;;17.04;45.50
34124;BME280;13153;52.316;21.166;2023-04-26T04:47:44;99686.50;;;17.27;44.90
34124;BME280;13153;52.316;21.166;2023-04-26T04:50:10;99691.34;;;17.65;43.24
34124;BME280;13153;52.316;21.166;2023-04-26T04:52:36;99686.19;;;18.13;42.58
34124;BME280;13153;52.316;21.166;2023-04-26T04:55:03;99696.09;;;18.60;41.69
34124;BME280;13153;52.316;21.166;2023-04-26T04:57:29;99705.28;;;18.93;40.27
34124;BME280;13153;52.316;21.166;2023-04-26T04:59:57;99695.00;;;19.20;40.07
34124;BME280;13153;52.316;21.166;2023-04-26T05:02:22;99701.09;;;19.69;38.03
34124;BME280;13153;52.316;21.166;2023-04-26T05:04:49;99703.13;;;19.98;37.85
34124;BME280;13153;52.316;21.166;2023-04-26T05:07:15;99702.16;;;20.39;37.92
34124;BME280;13153;52.316;21.166;2023-04-26T05:09:42;99708.53;;;21.03;36.38
34124;BME280;13153;52.316;21.166;2023-04-26T05:12:08;99708.56;;;21.36;36.00
34124;BME280;13153;52.316;21.166;2023-04-26T05:22:21;99724.78;;;24.42;31.16
34124;BME280;13153;52.316;21.166;2023-04-26T05:24:47;99727.38;;;24.87;30.39
34124;BME280;13153;52.316;21.166;2023-04-26T05:27:14;99729.16;;;25.49;29.24
34124;BME280;13153;52.316;21.166;2023-04-26T05:29:40;99727.00;;;26.34;28.21
34124;BME280;13153;52.316;21.166;2023-04-26T05:32:06;99725.78;;;26.58;28.12
34124;BME280;13153;52.316;21.166;2023-04-26T14:50:39;100043.13;;;16.52;32.25
34124;BME280;13153;52.316;21.166;2023-04-26T14:53:05;100036.06;;;16.44;32.92
34124;BME280;13153;52.316;21.166;2023-04-26T14:55:31;100029.88;;;16.43;32.92
34124;BME280;13153;52.316;21.166;2023-04-26T14:57:57;100040.50;;;16.39;33.43
34124;BME280;13153;52.316;21.166;2023-04-26T15:00:23;100039.63;;;16.34;33.13
34124;BME280;13153;52.316;21.166;2023-04-26T15:02:50;100045.84;;;16.31;33.70
34124;BME280;13153;52.316;21.166;2023-04-26T15:05:15;100049.38;;;16.27;33.98
34124;BME280;13153;52.316;21.166;2023-04-26T15:07:41;100047.66;;;16.17;33.24
34124;BME280;13153;52.316;21.166;2023-04-26T15:10:08;100047.66;;;16.17;33.67
34124;BME280;13153;52.316;21.166;2023-04-26T15:12:34;100059.16;;;16.16;33.18
34124;BME280;13153;52.316;21.166;2023-04-26T15:15:01;100052.09;;;16.13;33.08
34124;BME280;13153;52.316;21.166;2023-04-26T15:17:30;100043.22;;;16.17;33.70
34124;BME280;13153;52.316;21.166;2023-04-26T15:19:56;100053.88;;;16.14;33.26
34124;BME280;13153;52.316;21.166;2023-04-26T15:22:22;100060.06;;;16.10;33.19
34124;BME280;13153;52.316;21.166;2023-04-26T15:24:47;100060.94;;;16.11;33.62
34124;BME280;13153;52.316;21.166;2023-04-26T15:27:15;100056.53;;;16.14;34.19
34124;BME280;13153;52.316;21.166;2023-04-26T15:29:42;100057.34;;;16.23;34.15
34124;BME280;13153;52.316;21.166;2023-04-26T15:32:08;100055.56;;;16.31;34.65
34124;BME280;13153;52.316;21.166;2023-04-26T15:34:41;100051.13;;;16.39;34.50
34124;BME280;13153;52.316;21.166;2023-04-26T15:37:10;100058.22;;;16.35;34.29
34124;BME280;13153;52.316;21.166;2023-04-26T15:39:37;100051.16;;;16.34;33.32
34124;BME280;13153;52.316;21.166;2023-04-26T15:42:04;100060.00;;;16.30;33.58
34124;BME280;13153;52.316;21.166;2023-04-26T15:44:30;100050.25;;;16.32;33.96
34124;BME280;13153;52.316;21.166;2023-04-26T15:46:56;100057.34;;;16.33;33.86
34124;BME280;13153;52.316;21.166;2023-04-26T15:49:25;100055.56;;;16.34;34.11
34124;BME280;13153;52.316;21.166;2023-04-26T15:51:51;100064.44;;;16.30;34.59
34124;BME280;13153;52.316;21.166;2023-04-26T15:54:16;100059.13;;;16.21;34.60
34124;BME280;13153;52.316;21.166;2023-04-26T15:56:44;100050.34;;;16.09;34.41
34124;BME280;13153;52.316;21.166;2023-04-26T15:59:11;100053.00;;;16.03;34.82
34124;BME280;13153;52.316;21.166;2023-04-26T16:01:37;100060.94;;;15.97;34.63
34124;BME280;13153;52.316;21.166;2023-04-26T16:04:03;100059.19;;;15.95;34.66
34124;BME280;13153;52.316;21.166;2023-04-26T16:06:29;100056.53;;;15.92;34.77
34124;BME280;13153;52.316;21.166;2023-04-26T16:08:55;100061.84;;;15.79;34.30
34124;BME280;13153;52.316;21.166;2023-04-26T16:11:21;100055.63;;;15.68;33.61
34124;BME280;13153;52.316;21.166;2023-04-26T16:13:47;100056.53;;;15.64;33.91
34124;BME280;13153;52.316;21.166;2023-04-26T16:16:19;100067.16;;;15.60;34.02
34124;BME280;13153;52.316;21.166;2023-04-26T16:18:45;100069.81;;;15.58;34.39
34124;BME280;13153;52.316;21.166;2023-04-26T16:21:11;100064.47;;;15.50;33.77
34124;BME280;13153;52.316;21.166;2023-04-26T16:23:39;100075.06;;;15.43;33.79
34124;BME280;13153;52.316;21.166;2023-04-26T16:26:05;100075.94;;;15.42;34.36
34124;BME280;13153;52.316;21.166;2023-04-26T16:28:31;100085.66;;;15.43;34.05
34124;BME280;13153;52.316;21.166;2023-04-26T16:30:56;100077.69;;;15.43;34.33
34124;BME280;13153;52.316;21.166;2023-04-26T16:33:23;100080.34;;;15.44;34.58
34124;BME280;13153;52.316;21.166;2023-04-26T16:35:50;100085.66;;;15.40;34.32
34124;BME280;13153;52.316;21.166;2023-04-26T16:38:18;100087.41;;;15.36;34.66
34124;BME280;13153;52.316;21.166;2023-04-26T16:40:52;100090.94;;;15.35;35.62
34124;BME280;13153;52.316;21.166;2023-04-26T16:43:25;100097.13;;;15.33;35.03
34124;BME280;13153;52.316;21.166;2023-04-26T16:46:03;100096.22;;;15.26;35.22
34124;BME280;13153;52.316;21.166;2023-04-26T16:48:34;100089.13;;;15.24;35.52
34124;BME280;13153;52.316;21.166;2023-04-26T16:51:02;100100.63;;;15.24;35.60
34124;BME280;13153;52.316;21.166;2023-04-26T16:53:29;100099.72;;;15.22;35.69
34124;BME280;13153;52.316;21.166;2023-04-26T16:55:55;100102.38;;;15.20;35.39
34124;BME280;13153;52.316;21.166;2023-04-26T16:58:22;100104.16;;;15.22;36.31
34124;BME280;13153;52.316;21.166;2023-04-26T17:00:48;100105.03;;;15.20;35.90
34124;BME280;13153;52.316;21.166;2023-04-26T17:03:15;100105.91;;;15.23;36.09
34124;BME280;13153;52.316;21.166;2023-04-26T17:05:43;100104.16;;;15.22;35.93
34124;BME280;13153;52.316;21.166;2023-04-26T17:08:12;100105.91;;;15.21;35.78
34124;BME280;13153;52.316;21.166;2023-04-26T17:10:38;100105.03;;;15.19;35.99
34124;BME280;13153;52.316;21.166;2023-04-26T17:13:07;100106.75;;;15.12;36.39
34124;BME280;13153;52.316;21.166;2023-04-26T17:15:33;100112.06;;;15.14;36.28
34124;BME280;13153;52.316;21.166;2023-04-26T17:18:01;100105.88;;;15.15;36.45
34124;BME280;13153;52.316;21.166;2023-04-26T17:20:27;100113.84;;;15.18;36.18
34124;BME280;13153;52.316;21.166;2023-04-26T17:22:53;100114.72;;;15.17;36.72
34124;BME280;13153;52.316;21.166;2023-04-26T17:25:19;100110.28;;;15.11;36.88
34124;BME280;13153;52.316;21.166;2023-04-26T17:27:45;100112.91;;;15.05;37.17
34124;BME280;13153;52.316;21.166;2023-04-26T17:30:11;100108.50;;;15.04;37.26
34124;BME280;13153;52.316;21.166;2023-04-26T17:32:37;100117.34;;;15.06;37.26
34124;BME280;13153;52.316;21.166;2023-04-26T17:35:03;100120.00;;;15.08;37.54
34124;BME280;13153;52.316;21.166;2023-04-26T17:37:29;100112.94;;;15.07;37.35
34124;BME280;13153;52.316;21.166;2023-04-26T17:39:55;100112.03;;;15.06;37.62
34124;BME280;13153;52.316;21.166;2023-04-26T17:42:20;100121.75;;;15.06;37.74
34124;BME280;13153;52.316;21.166;2023-04-26T17:44:46;100122.63;;;15.05;37.52
34124;BME280;13153;52.316;21.166;2023-04-26T17:47:12;100128.81;;;15.02;37.61
34124;BME280;13153;52.316;21.166;2023-04-26T17:49:38;100127.06;;;15.01;37.34
34124;BME280;13153;52.316;21.166;2023-04-26T17:52:03;100135.00;;;14.98;37.61
34124;BME280;13153;52.316;21.166;2023-04-26T17:54:29;100138.53;;;15.00;37.40
34124;BME280;13153;52.316;21.166;2023-04-26T17:56:55;100138.53;;;15.00;37.20
34124;BME280;13153;52.316;21.166;2023-04-26T17:59:21;100141.19;;;14.97;37.67
34124;BME280;13153;52.316;21.166;2023-04-26T18:01:46;100142.94;;;14.98;37.53
34124;BME280;13153;52.316;21.166;2023-04-26T18:04:12;100149.13;;;14.96;37.72
34124;BME280;13153;52.316;21.166;2023-04-26T18:06:38;100147.34;;;14.95;37.79
34124;BME280;13153;52.316;21.166;2023-04-26T18:09:04;100147.34;;;14.92;37.88
34124;BME280;13153;52.316;21.166;2023-04-26T18:11:30;100154.34;;;14.83;38.25
34124;BME280;13153;52.316;21.166;2023-04-26T18:13:56;100149.91;;;14.78;38.93
34124;BME280;13153;52.316;21.166;2023-04-26T18:16:22;100162.22;;;14.73;38.92
34124;BME280;13153;52.316;21.166;2023-04-26T18:18:48;100160.44;;;14.67;39.24
34124;BME280;13153;52.316;21.166;2023-04-26T18:21:13;100156.00;;;14.66;38.94
34124;BME280;13153;52.316;21.166;2023-04-26T18:23:39;100158.66;;;14.65;39.29
34124;BME280;13153;52.316;21.166;2023-04-26T18:26:06;100163.03;;;14.63;39.43
34124;BME280;13153;52.316;21.166;2023-04-26T18:28:32;100163.03;;;14.61;39.45
34124;BME280;13153;52.316;21.166;2023-04-26T18:30:59;100168.31;;;14.60;39.86
34124;BME280;13153;52.316;21.166;2023-04-26T18:33:27;100170.97;;;14.58;39.59
34124;BME280;13153;52.316;21.166;2023-04-26T18:35:53;100170.97;;;14.58;38.83
34124;BME280;13153;52.316;21.166;2023-04-26T18:38:19;100174.47;;;14.56;39.28
34124;BME280;13153;52.316;21.166;2023-04-26T18:40:46;100176.19;;;14.50;39.50
34124;BME280;13153;52.316;21.166;2023-04-26T18:43:15;100171.75;;;14.45;39.21
34124;BME280;13153;52.316;21.166;2023-04-26T18:45:41;100180.53;;;14.41;39.45
34124;BME280;13153;52.316;21.166;2023-04-26T18:48:07;100179.63;;;14.37;39.24
34124;BME280;13153;52.316;21.166;2023-04-26T18:50:33;100182.25;;;14.34;39.27
34124;BME280;13153;52.316;21.166;2023-04-26T18:52:59;100185.75;;;14.30;38.98
34124;BME280;13153;52.316;21.166;2023-04-26T18:55:25;100189.28;;;14.31;39.06
34124;BME280;13153;52.316;21.166;2023-04-26T18:57:51;100185.75;;;14.32;38.89
34124;BME280;13153;52.316;21.166;2023-04-26T19:00:17;100186.59;;;14.28;38.92
34124;BME280;13153;52.316;21.166;2023-04-26T19:02:43;100189.19;;;14.21;38.95
34124;BME280;13153;52.316;21.166;2023-04-26T19:05:10;100197.13;;;14.20;39.07
34124;BME280;13153;52.316;21.166;2023-04-26T19:07:36;100197.13;;;14.20;39.28
34124;BME280;13153;52.316;21.166;2023-04-26T19:10:05;100192.69;;;14.19;39.06
34124;BME280;13153;52.316;21.166;2023-04-26T19:12:32;100193.53;;;14.15;39.05
34124;BME280;13153;52.316;21.166;2023-04-26T19:14:57;100196.16;;;14.12;38.95
34124;BME280;13153;52.316;21.166;2023-04-26T19:17:23;100198.78;;;14.09;39.01
34124;BME280;13153;52.316;21.166;2023-04-26T19:19:50;100192.59;;;14.07;38.90
34124;BME280;13153;52.316;21.166;2023-04-26T19:22:19;100198.69;;;14.01;39.35
34124;BME280;13153;52.316;21.166;2023-04-26T19:24:49;100202.09;;;13.89;38.78
34124;BME280;13153;52.316;21.166;2023-04-26T19:27:16;100210.91;;;13.85;39.58
34124;BME280;13153;52.316;21.166;2023-04-26T19:29:42;100197.66;;;13.82;39.12
34124;BME280;13153;52.316;21.166;2023-04-26T19:32:08;100200.28;;;13.79;39.33
34124;BME280;13153;52.316;21.166;2023-04-26T19:34:35;100204.63;;;13.74;39.89
34124;BME280;13153;52.316;21.166;2023-04-26T19:37:03;100207.19;;;13.68;39.35
34124;BME280;13153;52.316;21.166;2023-04-26T19:39:29;100210.66;;;13.61;39.74
34124;BME280;13153;52.316;21.166;2023-04-26T19:41:55;100207.97;;;13.60;39.42
34124;BME280;13153;52.316;21.166;2023-04-26T19:44:21;100209.69;;;13.54;40.01
34124;BME280;13153;52.316;21.166;2023-04-26T19:46:47;100214.00;;;13.48;39.58
34124;BME280;13153;52.316;21.166;2023-04-26T19:49:12;100210.34;;;13.37;40.24
34124;BME280;13153;52.316;21.166;2023-04-26T19:51:38;100206.75;;;13.30;40.20
34124;BME280;13153;52.316;21.166;2023-04-26T19:54:04;100209.41;;;13.32;40.98
34124;BME280;13153;52.316;21.166;2023-04-26T19:56:30;100215.66;;;13.38;40.58
34124;BME280;13153;52.316;21.166;2023-04-26T19:58:56;100210.41;;;13.43;40.23
34124;BME280;13153;52.316;21.166;2023-04-26T20:01:21;100212.19;;;13.44;40.02
34124;BME280;13153;52.316;21.166;2023-04-26T20:03:47;100213.06;;;13.43;40.66
34124;BME280;13153;52.316;21.166;2023-04-26T20:06:13;100217.50;;;13.45;40.41
34124;BME280;13153;52.316;21.166;2023-04-26T20:08:40;100219.25;;;13.43;40.05
34124;BME280;13153;52.316;21.166;2023-04-26T20:11:06;100213.00;;;13.37;40.21
34124;BME280;13153;52.316;21.166;2023-04-26T20:13:34;100219.16;;;13.37;40.11
34124;BME280;13153;52.316;21.166;2023-04-26T20:16:00;100222.63;;;13.33;40.01
34124;BME280;13153;52.316;21.166;2023-04-26T20:18:26;100216.44;;;13.31;40.40
34124;BME280;13153;52.316;21.166;2023-04-26T20:20:52;100221.69;;;13.27;40.31
34124;BME280;13153;52.316;21.166;2023-04-26T20:23:18;100226.06;;;13.25;40.29
34124;BME280;13153;52.316;21.166;2023-04-26T20:25:43;100218.97;;;13.20;40.65
34124;BME280;13153;52.316;21.166;2023-04-26T20:28:09;100221.50;;;13.14;40.26
34124;BME280;13153;52.316;21.166;2023-04-26T20:30:35;100223.25;;;13.14;40.39
34124;BME280;13153;52.316;21.166;2023-04-26T20:33:01;100224.97;;;13.12;40.88
34124;BME280;13153;52.316;21.166;2023-04-26T20:35:27;100228.47;;;13.09;40.67
34124;BME280;13153;52.316;21.166;2023-04-26T20:37:53;100231.03;;;13.03;41.11
34124;BME280;13153;52.316;21.166;2023-04-26T20:40:19;100232.78;;;13.03;40.75
34124;BME280;13153;52.316;21.166;2023-04-26T20:42:44;100226.53;;;12.98;41.14
34124;BME280;13153;52.316;21.166;2023-04-26T20:45:11;100230.88;;;12.94;40.78
34124;BME280;13153;52.316;21.166;2023-04-26T20:47:37;100232.59;;;12.90;40.53
34124;BME280;13153;52.316;21.166;2023-04-26T20:50:03;100231.72;;;12.90;40.49
34124;BME280;13153;52.316;21.166;2023-04-26T20:52:30;100228.13;;;12.85;40.40
34124;BME280;13153;52.316;21.166;2023-04-26T20:54:56;100232.50;;;12.83;40.53
34124;BME280;13153;52.316;21.166;2023-04-26T20:57:22;100228.03;;;12.79;40.83
34124;BME280;13153;52.316;21.166;2023-04-26T20:59:48;100229.72;;;12.75;40.95
34124;BME280;13153;52.316;21.166;2023-04-26T21:02:14;100235.88;;;12.74;40.64
34124;BME280;13153;52.316;21.166;2023-04-26T21:04:41;100233.19;;;12.70;40.48
34124;BME280;13153;52.316;21.166;2023-04-26T21:07:08;100238.34;;;12.62;40.48
34124;BME280;13153;52.316;21.166;2023-04-26T21:09:34;100239.06;;;12.52;40.46
34124;BME280;13153;52.316;21.166;2023-04-26T21:11:59;100240.59;;;12.39;41.47
34124;BME280;13153;52.316;21.166;2023-04-26T21:14:26;100239.56;;;12.30;41.13
34124;BME280;13153;52.316;21.166;2023-04-26T21:16:52;100250.84;;;12.21;41.64
34124;BME280;13153;52.316;21.166;2023-04-26T21:19:18;100257.75;;;12.13;42.43
34124;BME280;13153;52.316;21.166;2023-04-26T21:21:44;100255.03;;;12.08;42.13
34124;BME280;13153;52.316;21.166;2023-04-26T21:24:10;100260.25;;;12.05;42.59
34124;BME280;13153;52.316;21.166;2023-04-26T21:26:36;100257.56;;;12.02;42.54
34124;BME280;13153;52.316;21.166;2023-04-26T21:29:02;100261.81;;;11.96;42.65
34124;BME280;13153;52.316;21.166;2023-04-26T21:31:28;100259.06;;;11.89;42.84
34124;BME280;13153;52.316;21.166;2023-04-26T21:33:54;100267.78;;;11.85;42.86
34124;BME280;13153;52.316;21.166;2023-04-26T21:36:20;100263.31;;;11.81;42.92
34124;BME280;13153;52.316;21.166;2023-04-26T21:38:46;100271.13;;;11.77;43.02
34124;BME280;13153;52.316;21.166;2023-04-26T21:41:12;100273.63;;;11.72;42.89
34124;BME280;13153;52.316;21.166;2023-04-26T21:43:37;100278.81;;;11.68;43.11
34124;BME280;13153;52.316;21.166;2023-04-26T21:46:03;100272.69;;;11.69;42.74
34124;BME280;13153;52.316;21.166;2023-04-26T21:48:29;100279.63;;;11.65;43.33
34124;BME280;13153;52.316;21.166;2023-04-26T21:50:55;100282.25;;;11.64;43.04
34124;BME280;13153;52.316;21.166;2023-04-26T21:53:21;100286.59;;;11.62;42.87
34124;BME280;13153;52.316;21.166;2023-04-26T21:55:51;100292.69;;;11.59;43.00
34124;BME280;13153;52.316;21.166;2023-04-26T21:58:19;100290.88;;;11.55;43.13
34124;BME280;13153;52.316;21.166;2023-04-26T22:00:45;100292.63;;;11.54;43.05
34124;BME280;13153;52.316;21.166;2023-04-26T22:03:11;100303.91;;;11.49;43.50
34124;BME280;13153;52.316;21.166;2023-04-26T22:05:37;100300.38;;;11.47;43.54